Time;durP1;ratioP1;P1;durP2;ratioP2;P2;SDS_P1;SDS_P2;PMS_P1;PMS_P2;Temp;Humidity;BMP_temperature;BMP_pressure;BME280_temperature;BME280_humidity;BME280_pressure;Samples;Min_cycle;Max_cycle;Signal;HPM_P1;HPM_P2
2021/05/16 00:00:16;;;;;;;3.83;1.30;;;;;;;16.42;56.90;100482.72;143733;601;46019;-77
2021/05/16 00:02:43;;;;;;;2.87;1.30;;;;;;;16.42;56.82;100482.72;143735;630;46020;-78
2021/05/16 00:05:13;;;;;;;3.03;1.40;;;;;;;16.44;57.31;100478.19;143734;629;46016;-77
2021/05/16 00:07:41;;;;;;;5.18;1.40;;;;;;;16.35;56.89;100479.56;143737;585;46008;-82
2021/05/16 00:10:10;;;;;;;4.07;1.30;;;;;;;16.35;57.50;100470.78;143737;576;46010;-80
2021/05/16 00:12:39;;;;;;;2.87;1.20;;;;;;;16.28;57.58;100475.56;143737;586;46008;-81
2021/05/16 00:15:10;;;;;;;6.45;1.48;;;;;;;16.23;57.35;100472.31;143728;586;46017;-81
2021/05/16 00:17:37;;;;;;;4.30;1.40;;;;;;;16.15;57.40;100459.47;143738;585;46914;-85
2021/05/16 00:20:10;;;;;;;3.33;1.10;;;;;;;16.24;57.46;100474.00;143735;609;46018;-84
2021/05/16 00:22:40;;;;;;;5.68;1.42;;;;;;;16.20;57.41;100467.19;143739;578;46011;-86
2021/05/16 00:25:11;;;;;;;2.67;1.42;;;;;;;16.13;57.19;100474.59;143737;564;46910;-81
2021/05/16 00:27:39;;;;;;;4.62;1.23;;;;;;;16.06;57.56;100471.44;143736;569;46008;-81
2021/05/16 00:30:12;;;;;;;4.22;1.17;;;;;;;16.01;57.39;100478.78;143736;604;46910;-81
2021/05/16 00:32:39;;;;;;;4.57;1.20;;;;;;;15.95;57.45;100473.81;143738;586;46008;-84
2021/05/16 00:35:09;;;;;;;4.25;1.25;;;;;;;15.92;57.83;100467.81;143734;611;46018;-83
2021/05/16 00:37:37;;;;;;;3.30;1.10;;;;;;;15.86;58.07;100469.03;143737;613;46009;-89
2021/05/16 00:40:06;;;;;;;4.80;1.20;;;;;;;15.84;58.25;100469.09;143731;573;46018;-86
2021/05/16 00:42:34;;;;;;;4.37;1.10;;;;;;;15.86;57.87;100476.97;143734;599;46008;-87
2021/05/16 00:45:11;;;;;;;3.12;1.10;;;;;;;15.89;57.91;100476.78;143734;651;46017;-86
2021/05/16 00:47:44;;;;;;;4.50;1.10;;;;;;;15.90;57.98;100481.16;143737;591;46020;-83
2021/05/16 00:50:12;;;;;;;2.97;1.30;;;;;;;15.91;57.98;100485.53;143736;569;46018;-83
2021/05/16 00:52:41;;;;;;;3.45;1.23;;;;;;;15.93;57.79;100478.34;143737;657;47006;-85
2021/05/16 00:55:10;;;;;;;3.55;1.30;;;;;;;15.50;57.44;100404.72;143736;595;46016;-85
2021/05/16 00:57:38;;;;;;;2.42;1.10;;;;;;;15.89;57.76;100479.44;143732;592;47008;-87
2021/05/16 01:00:09;;;;;;;4.15;1.15;;;;;;;15.87;57.86;100476.03;143736;639;47008;-86
2021/05/16 01:02:37;;;;;;;2.62;1.20;;;;;;;15.82;57.81;100473.63;143734;639;47006;-82
2021/05/16 01:05:08;;;;;;;3.12;0.98;;;;;;;15.81;57.90;100471.91;143729;596;46016;-85
2021/05/16 01:07:37;;;;;;;3.05;1.10;;;;;;;15.83;57.67;100463.91;143738;606;46008;-90
2021/05/16 01:10:07;;;;;;;3.47;1.00;;;;;;;15.89;58.03;100468.84;143730;614;47018;-82
2021/05/16 01:12:41;;;;;;;2.60;1.05;;;;;;;15.89;57.99;100468.84;143738;638;46018;-82
2021/05/16 01:15:12;;;;;;;4.93;1.10;;;;;;;15.86;57.92;100461.91;143732;682;47012;-79
2021/05/16 01:17:40;;;;;;;2.95;1.00;;;;;;;15.86;57.86;100463.72;143735;642;46914;-79
2021/05/16 01:20:11;;;;;;;2.67;1.00;;;;;;;15.80;57.92;100456.09;143735;578;47008;-81
2021/05/16 01:22:38;;;;;;;2.58;0.98;;;;;;;15.78;57.74;100460.59;143737;591;47006;-76
2021/05/16 01:25:08;;;;;;;4.72;0.80;;;;;;;15.71;57.93;100463.56;143736;666;46016;-77
2021/05/16 01:27:36;;;;;;;2.10;0.88;;;;;;;15.68;57.84;100454.94;143737;563;46008;-79
2021/05/16 01:30:06;;;;;;;2.25;0.82;;;;;;;15.69;57.75;100451.34;143731;682;46008;-80
2021/05/16 01:32:33;;;;;;;2.97;0.90;;;;;;;15.71;57.89;100460.91;143738;588;46013;-81
2021/05/16 01:35:00;;;;;;;3.30;0.90;;;;;;;15.60;57.94;100442.12;143736;587;46016;-80
2021/05/16 01:37:27;;;;;;;2.37;1.10;;;;;;;15.60;58.00;100452.69;143736;698;47009;-80
2021/05/16 01:39:55;;;;;;;2.15;0.80;;;;;;;15.59;58.11;100450.13;143735;638;46018;-80
2021/05/16 01:42:24;;;;;;;4.37;1.00;;;;;;;15.45;58.15;100443.78;143736;588;47006;-80
2021/05/16 01:45:01;;;;;;;3.28;0.90;;;;;;;15.51;58.11;100451.41;143735;598;46019;-82
2021/05/16 01:47:29;;;;;;;3.20;0.90;;;;;;;15.51;58.09;100447.88;143733;585;47008;-79
2021/05/16 01:50:07;;;;;;;2.22;0.90;;;;;;;15.53;58.23;100446.03;143736;589;46910;-80
2021/05/16 01:52:35;;;;;;;2.62;0.95;;;;;;;15.51;58.19;100442.59;143738;657;47006;-79
2021/05/16 01:55:03;;;;;;;2.78;0.90;;;;;;;15.51;57.93;100448.75;143730;648;46016;-81
2021/05/16 01:57:31;;;;;;;3.72;1.00;;;;;;;15.47;58.18;100455.13;143739;695;46008;-80
2021/05/16 01:59:59;;;;;;;4.22;0.90;;;;;;;15.50;58.05;100456.75;143737;566;47008;-82
2021/05/16 02:02:26;;;;;;;4.82;1.00;;;;;;;15.43;58.17;100443.00;143738;633;46022;-85
2021/05/16 02:04:54;;;;;;;2.00;0.98;;;;;;;15.45;58.44;100449.06;143730;601;46018;-83
2021/05/16 02:07:21;;;;;;;3.50;0.88;;;;;;;15.44;58.14;100441.22;143738;659;47008;-86
2021/05/16 02:09:48;;;;;;;3.25;1.00;;;;;;;15.54;57.83;100443.31;143735;575;46019;-82
2021/05/16 02:12:20;;;;;;;2.40;1.00;;;;;;;15.56;57.71;100444.06;143734;570;46008;-76
2021/05/16 02:14:47;;;;;;;2.90;0.90;;;;;;;15.53;58.05;100446.87;143736;650;46011;-80
2021/05/16 02:17:15;;;;;;;2.47;1.08;;;;;;;15.47;58.13;100451.63;143737;640;47010;-81
2021/05/16 02:19:43;;;;;;;2.95;0.90;;;;;;;15.39;58.21;100455.53;143734;586;46006;-83
2021/05/16 02:22:10;;;;;;;4.95;1.10;;;;;;;15.34;58.50;100456.72;143736;597;46010;-82
2021/05/16 02:24:37;;;;;;;1.73;0.88;;;;;;;15.31;58.56;100452.44;143737;622;46910;-86
2021/05/16 02:27:05;;;;;;;2.25;0.90;;;;;;;15.27;58.68;100460.59;143739;652;45050;-83
2021/05/16 02:29:32;;;;;;;3.15;1.10;;;;;;;15.22;59.04;100464.34;143737;664;46008;-84
2021/05/16 02:31:59;;;;;;;2.15;1.05;;;;;;;15.17;58.91;100462.88;143738;573;45908;-84
2021/05/16 02:34:26;;;;;;;4.70;1.35;;;;;;;15.09;59.01;100457.13;143736;720;46016;-85
2021/05/16 02:36:54;;;;;;;1.83;1.05;;;;;;;15.11;58.84;100460.56;143740;586;45021;-92
2021/05/16 02:39:21;;;;;;;2.58;1.02;;;;;;;15.13;59.10;100459.53;143736;586;47010;-91
2021/05/16 02:41:48;;;;;;;2.53;1.15;;;;;;;15.28;58.71;100463.19;143737;485;46006;-90
2021/05/16 02:44:15;;;;;;;1.80;1.10;;;;;;;15.42;58.43;100469.53;143728;565;47020;-90
2021/05/16 02:46:42;;;;;;;3.40;1.30;;;;;;;14.97;58.34;100393.37;143731;614;47008;-86
2021/05/16 02:49:09;;;;;;;5.07;1.20;;;;;;;15.42;58.58;100465.13;143731;573;46008;-81
2021/05/16 02:51:37;;;;;;;4.12;1.35;;;;;;;15.39;59.14;100467.91;143733;564;46009;-80
2021/05/16 02:54:05;;;;;;;3.85;1.25;;;;;;;15.32;59.32;100470.03;143730;613;47008;-80
2021/05/16 02:56:33;;;;;;;4.15;1.35;;;;;;;15.28;59.45;100472.91;143729;608;47008;-80
2021/05/16 02:59:01;;;;;;;4.57;1.40;;;;;;;14.99;59.22;100431.13;143733;652;46009;-85
2021/05/16 03:01:28;;;;;;;5.20;1.70;;;;;;;15.23;59.44;100473.16;143731;606;47006;-77
2021/05/16 03:03:55;;;;;;;5.57;1.25;;;;;;;15.23;59.42;100471.34;143729;599;47010;-76
2021/05/16 03:06:22;;;;;;;4.03;1.50;;;;;;;15.24;59.43;100477.50;143732;620;46010;-83
2021/05/16 03:08:50;;;;;;;4.90;1.23;;;;;;;15.27;59.18;100471.19;143730;613;47006;-86
2021/05/16 03:11:17;;;;;;;4.68;1.40;;;;;;;15.26;59.27;100465.03;143731;568;46022;-84
2021/05/16 03:13:44;;;;;;;3.20;1.50;;;;;;;15.23;59.10;100474.00;143731;672;46020;-80
2021/05/16 03:16:11;;;;;;;3.47;1.50;;;;;;;15.21;59.18;100477.63;143731;621;46010;-79
2021/05/16 03:18:38;;;;;;;3.12;1.40;;;;;;;14.74;59.20;100391.88;143732;739;46008;-74
2021/05/16 03:21:05;;;;;;;3.50;1.30;;;;;;;15.15;59.43;100470.03;143731;680;47006;-76
2021/05/16 03:23:32;;;;;;;3.60;1.40;;;;;;;15.14;59.19;100476.25;143731;618;46019;-77
2021/05/16 03:26:02;;;;;;;3.92;1.30;;;;;;;15.16;59.10;100475.25;143732;587;46914;-77
2021/05/16 03:28:30;;;;;;;3.55;1.30;;;;;;;15.21;59.18;100472.34;143730;581;46016;-75
2021/05/16 03:30:58;;;;;;;4.37;1.50;;;;;;;15.25;59.24;100475.72;143733;788;46010;-75
2021/05/16 03:33:25;;;;;;;6.60;1.92;;;;;;;15.25;59.23;100481.84;143729;563;46020;-75
2021/05/16 03:35:53;;;;;;;7.62;1.90;;;;;;;15.26;59.18;100480.91;143732;603;47008;-75
2021/05/16 03:38:21;;;;;;;5.37;1.58;;;;;;;15.32;59.11;100488.56;143729;687;46008;-76
2021/05/16 03:40:48;;;;;;;6.37;1.67;;;;;;;15.32;59.15;100475.31;143733;585;46008;-77
2021/05/16 03:43:18;;;;;;;4.62;1.52;;;;;;;15.32;60.52;100485.91;143728;655;46017;-79
2021/05/16 03:45:45;;;;;;;5.03;1.70;;;;;;;15.33;60.15;100487.59;143730;663;47008;-77
2021/05/16 03:48:12;;;;;;;7.07;2.12;;;;;;;15.33;61.80;100486.75;143731;578;47006;-80
2021/05/16 03:50:39;;;;;;;6.12;2.50;;;;;;;15.32;62.01;100491.19;143727;677;46021;-81
2021/05/16 03:53:07;;;;;;;6.18;2.70;;;;;;;15.34;61.76;100491.97;143732;586;46010;-80
2021/05/16 03:55:34;;;;;;;6.25;2.50;;;;;;;15.35;61.50;100491.03;143730;582;47010;-80
2021/05/16 03:58:01;;;;;;;7.90;2.45;;;;;;;15.41;61.24;100492.50;143726;630;46019;-80
2021/05/16 04:00:28;;;;;;;8.98;2.80;;;;;;;15.45;61.72;100490.56;143730;647;47008;-79
2021/05/16 04:02:56;;;;;;;5.90;2.62;;;;;;;15.50;61.98;100489.38;143729;565;46027;-80
2021/05/16 04:05:23;;;;;;;4.93;2.30;;;;;;;15.55;61.19;100489.13;143732;564;46914;-74
2021/05/16 04:07:50;;;;;;;7.12;2.50;;;;;;;15.63;61.36;100488.75;143728;595;47008;-72
2021/05/16 04:10:17;;;;;;;6.37;2.12;;;;;;;15.67;61.36;100491.13;143732;626;47006;-73
2021/05/16 04:12:44;;;;;;;8.73;2.33;;;;;;;15.74;61.11;100489.03;143726;673;46018;-73
2021/05/16 04:15:11;;;;;;;4.72;2.10;;;;;;;15.83;61.28;100485.06;143732;565;47008;-71
2021/05/16 04:17:39;;;;;;;6.05;1.90;;;;;;;15.94;60.68;100492.41;143729;613;46026;-77
2021/05/16 04:20:08;;;;;;;4.53;1.75;;;;;;;16.05;60.52;100490.06;143731;569;47006;-76
2021/05/16 04:22:35;;;;;;;5.65;2.15;;;;;;;16.15;60.50;100485.94;143732;726;46010;-75
2021/05/16 04:25:02;;;;;;;7.57;1.85;;;;;;;16.24;60.29;100487.25;143730;678;46008;-75
2021/05/16 04:27:29;;;;;;;5.28;2.20;;;;;;;16.32;60.01;100487.69;143727;605;46910;-75
2021/05/16 04:29:56;;;;;;;7.03;2.10;;;;;;;16.23;59.85;100453.75;143730;689;46008;-75
2021/05/16 04:32:23;;;;;;;6.45;2.25;;;;;;;16.48;59.89;100492.97;143732;631;46010;-74
2021/05/16 04:34:51;;;;;;;7.97;2.78;;;;;;;16.57;59.86;100491.59;143729;625;46020;-75
2021/05/16 04:37:18;;;;;;;6.20;2.40;;;;;;;16.63;59.78;100490.41;143732;573;46008;-75
2021/05/16 04:39:45;;;;;;;8.27;2.40;;;;;;;16.70;59.74;100487.31;143728;605;47015;-75
2021/05/16 04:42:12;;;;;;;5.12;2.05;;;;;;;16.63;59.46;100453.28;143731;633;46020;-73
2021/05/16 04:44:39;;;;;;;6.15;2.10;;;;;;;16.85;59.29;100495.31;143731;660;46020;-73
2021/05/16 04:47:06;;;;;;;4.70;2.00;;;;;;;16.90;59.44;100498.59;143728;611;46018;-74
2021/05/16 04:49:33;;;;;;;6.35;2.45;;;;;;;16.98;59.39;100495.53;143731;569;46020;-78
2021/05/16 04:52:01;;;;;;;6.95;2.47;;;;;;;17.07;59.51;100501.13;143727;673;46017;-76
2021/05/16 04:54:28;;;;;;;6.28;2.70;;;;;;;17.21;59.25;100496.81;143730;569;46010;-79
2021/05/16 04:56:55;;;;;;;7.45;2.85;;;;;;;17.35;59.00;100496.84;143729;602;46008;-76
2021/05/16 04:59:22;;;;;;;9.45;3.20;;;;;;;17.51;58.63;100498.56;143730;653;47006;-80
2021/05/16 05:01:49;;;;;;;8.38;3.30;;;;;;;17.64;58.55;100491.56;143726;565;47006;-79
2021/05/16 05:04:16;;;;;;;9.23;2.72;;;;;;;17.43;58.34;100444.16;143733;564;46008;-80
2021/05/16 05:06:43;;;;;;;11.55;3.00;;;;;;;17.95;58.32;100510.09;143730;571;46026;-74
2021/05/16 05:09:10;;;;;;;9.70;2.30;;;;;;;18.12;58.42;100520.53;143728;572;47006;-75
2021/05/16 05:11:37;;;;;;;7.15;2.22;;;;;;;18.26;56.95;100523.19;143729;571;46029;-77
2021/05/16 05:14:05;;;;;;;3.72;1.70;;;;;;;18.41;56.74;100524.00;143730;569;47008;-76
2021/05/16 05:16:32;;;;;;;3.55;1.50;;;;;;;18.52;56.89;100525.09;143728;564;46018;-75
2021/05/16 05:18:59;;;;;;;4.78;1.75;;;;;;;18.57;56.33;100525.69;143732;625;46022;-77
2021/05/16 05:21:26;;;;;;;5.37;1.60;;;;;;;18.63;55.99;100524.41;143725;656;47019;-77
2021/05/16 05:23:53;;;;;;;4.43;1.50;;;;;;;18.73;55.98;100536.19;143731;577;46008;-77
2021/05/16 05:26:20;;;;;;;2.90;1.00;;;;;;;18.83;54.70;100523.12;143729;581;47008;-77
2021/05/16 05:28:47;;;;;;;1.85;0.65;;;;;;;18.97;54.70;100511.59;143732;572;47006;-77
2021/05/16 05:31:15;;;;;;;2.25;0.52;;;;;;;19.08;54.25;100514.38;143728;600;46910;-75
2021/05/16 05:33:42;;;;;;;2.58;0.50;;;;;;;18.92;52.81;100480.84;143732;638;47008;-79
2021/05/16 05:36:09;;;;;;;1.52;0.60;;;;;;;19.31;53.45;100526.16;143728;571;46911;-76
2021/05/16 05:38:36;;;;;;;1.50;0.40;;;;;;;19.45;52.47;100526.09;143733;712;46022;-78
2021/05/16 05:41:03;;;;;;;1.17;0.50;;;;;;;19.54;50.81;100523.75;143731;607;46011;-76
2021/05/16 05:43:30;;;;;;;2.72;0.60;;;;;;;19.68;52.32;100514.81;143730;686;46021;-78
2021/05/16 05:45:57;;;;;;;0.75;0.43;;;;;;;19.81;51.27;100513.03;143727;582;46018;-77
2021/05/16 05:48:26;;;;;;;0.55;0.40;;;;;;;19.84;48.66;100514.63;143733;576;46022;-79
2021/05/16 05:50:54;;;;;;;1.65;0.37;;;;;;;19.97;50.95;100518.13;143729;583;46911;-79
2021/05/16 05:53:21;;;;;;;1.83;0.37;;;;;;;20.15;50.12;100520.44;143734;587;45020;-75
2021/05/16 05:55:49;;;;;;;0.47;0.30;;;;;;;20.26;47.70;100520.53;143728;609;46018;-75
2021/05/16 05:58:16;;;;;;;1.52;0.40;;;;;;;20.35;47.76;100519.00;143732;591;46008;-75
2021/05/16 06:00:43;;;;;;;0.73;0.35;;;;;;;20.40;46.44;100512.38;143730;605;46016;-75
2021/05/16 06:03:10;;;;;;;1.52;0.40;;;;;;;20.49;46.17;100508.22;143730;569;46020;-77
2021/05/16 06:05:37;;;;;;;1.40;0.43;;;;;;;20.55;45.45;100509.56;143731;589;47010;-77
2021/05/16 06:08:04;;;;;;;3.33;0.60;;;;;;;20.71;46.52;100503.97;143732;582;47010;-78
2021/05/16 06:10:32;;;;;;;2.80;0.50;;;;;;;20.84;46.13;100502.09;143731;578;46024;-76
2021/05/16 06:12:59;;;;;;;0.75;0.43;;;;;;;20.99;45.48;100505.44;143734;602;46008;-78
2021/05/16 06:15:26;;;;;;;0.95;0.30;;;;;;;21.16;46.51;100505.97;143729;620;46018;-77
2021/05/16 06:17:53;;;;;;;0.98;0.45;;;;;;;21.26;45.14;100507.84;143731;602;46020;-79
2021/05/16 06:20:20;;;;;;;1.25;0.43;;;;;;;21.36;45.53;100516.00;143733;575;46010;-77
2021/05/16 06:22:47;;;;;;;2.58;0.40;;;;;;;21.41;44.39;100505.81;143731;594;46020;-77
2021/05/16 06:25:16;;;;;;;3.60;0.55;;;;;;;21.52;42.96;100506.81;143726;640;46008;-77
2021/05/16 06:27:43;;;;;;;1.30;0.50;;;;;;;21.52;43.89;100518.34;143732;570;46021;-79
2021/05/16 06:30:11;;;;;;;2.65;0.50;;;;;;;21.58;42.95;100512.56;143729;644;47030;-79
2021/05/16 06:32:41;;;;;;;2.62;0.50;;;;;;;21.61;42.16;100522.13;143734;575;46008;-74
2021/05/16 06:35:10;;;;;;;1.30;0.45;;;;;;;21.61;41.86;100514.13;143732;618;47008;-75
2021/05/16 06:37:37;;;;;;;1.65;0.43;;;;;;;21.58;41.55;100520.59;143733;593;47010;-75
2021/05/16 06:40:05;;;;;;;0.95;0.50;;;;;;;21.61;41.48;100530.16;143730;569;46010;-75
2021/05/16 06:42:33;;;;;;;0.90;0.50;;;;;;;21.61;41.22;100538.16;143732;599;46008;-75
2021/05/16 06:45:00;;;;;;;0.93;0.50;;;;;;;21.74;42.06;100548.78;143729;626;47008;-75
2021/05/16 06:47:27;;;;;;;1.30;0.50;;;;;;;21.89;41.79;100552.91;143734;581;47023;-75
2021/05/16 06:49:54;;;;;;;1.60;0.60;;;;;;;21.92;40.97;100563.34;143731;613;46021;-75
2021/05/16 06:52:22;;;;;;;1.55;0.40;;;;;;;22.01;41.63;100567.16;143731;583;47008;-76
2021/05/16 06:54:49;;;;;;;2.83;0.40;;;;;;;22.14;42.35;100567.00;143728;596;46018;-75
2021/05/16 06:57:17;;;;;;;1.15;0.50;;;;;;;22.27;42.16;100565.06;143731;575;46021;-76
2021/05/16 06:59:46;;;;;;;0.57;0.40;;;;;;;22.38;41.83;100564.25;143732;563;46010;-76
2021/05/16 07:02:13;;;;;;;1.65;0.50;;;;;;;22.47;40.22;100552.81;143731;742;46020;-75
2021/05/16 07:04:42;;;;;;;1.25;0.47;;;;;;;22.56;40.66;100551.22;143731;577;46016;-75
2021/05/16 07:07:10;;;;;;;2.53;0.60;;;;;;;22.70;40.72;100546.56;143731;569;46020;-75
2021/05/16 07:09:37;;;;;;;4.35;0.60;;;;;;;22.80;40.45;100551.03;143732;578;46010;-76
2021/05/16 07:12:06;;;;;;;1.15;0.50;;;;;;;22.88;39.50;100552.22;143730;592;46020;-74
2021/05/16 07:14:33;;;;;;;1.62;0.50;;;;;;;22.97;41.38;100551.47;143731;607;46008;-76
2021/05/16 07:17:00;;;;;;;1.83;0.52;;;;;;;23.05;40.05;100550.84;143733;565;46020;-81
2021/05/16 07:19:27;;;;;;;2.42;0.40;;;;;;;23.20;40.33;100548.75;143726;588;46017;-81
2021/05/16 07:21:55;;;;;;;0.75;0.40;;;;;;;23.25;40.20;100543.81;143733;563;46008;-82
2021/05/16 07:24:22;;;;;;;1.80;0.62;;;;;;;23.24;37.56;100536.78;143731;588;47006;-82
2021/05/16 07:26:49;;;;;;;0.93;0.50;;;;;;;23.31;38.83;100537.97;143734;608;47008;-82
2021/05/16 07:29:16;;;;;;;3.33;0.57;;;;;;;23.42;39.58;100539.72;143732;577;46010;-82
2021/05/16 07:31:43;;;;;;;12.20;0.60;;;;;;;23.48;37.49;100532.03;143732;570;46995;-82
2021/05/16 07:34:11;;;;;;;2.15;0.50;;;;;;;23.54;39.05;100537.81;143730;621;46012;-82
2021/05/16 07:36:44;;;;;;;;;;;;;;;23.68;39.11;100534.81;143737;980;47008;-82
2021/05/16 07:39:11;;;;;;;1.52;0.47;;;;;;;23.69;38.67;100530.28;143738;623;46020;-82
2021/05/16 07:41:38;;;;;;;1.48;0.40;;;;;;;23.67;38.00;100530.44;143733;572;46012;-81
2021/05/16 07:44:06;;;;;;;1.80;0.50;;;;;;;23.71;39.29;100529.19;143731;647;46020;-81
2021/05/16 07:46:33;;;;;;;2.10;0.40;;;;;;;23.81;38.06;100532.78;143732;643;46010;-81
2021/05/16 07:49:00;;;;;;;1.25;0.50;;;;;;;23.81;38.22;100530.09;143733;631;46016;-81
2021/05/16 07:51:27;;;;;;;1.85;0.45;;;;;;;23.87;38.13;100527.88;143732;594;46020;-81
2021/05/16 07:53:57;;;;;;;1.42;0.40;;;;;;;23.92;38.10;100521.16;143733;606;46010;-82
2021/05/16 07:56:24;;;;;;;1.02;0.40;;;;;;;24.05;38.92;100530.81;143732;620;48008;-81
2021/05/16 07:58:52;;;;;;;2.30;0.60;;;;;;;24.15;37.97;100524.50;143729;627;47019;-81
2021/05/16 08:01:19;;;;;;;0.90;0.50;;;;;;;24.25;38.28;100523.66;143733;580;47008;-82
2021/05/16 08:03:46;;;;;;;0.93;0.50;;;;;;;24.33;36.52;100532.72;143732;583;46020;-83
2021/05/16 08:06:14;;;;;;;1.20;0.40;;;;;;;24.42;35.28;100525.69;143733;615;46012;-82
2021/05/16 08:08:41;;;;;;;1.45;0.40;;;;;;;24.49;36.48;100534.91;143731;614;47018;-83
2021/05/16 08:11:08;;;;;;;1.77;0.50;;;;;;;24.54;37.21;100530.94;143732;591;46012;-82
2021/05/16 08:13:36;;;;;;;1.45;0.45;;;;;;;24.57;36.70;100519.94;143732;606;46018;-83
2021/05/16 08:16:04;;;;;;;0.60;0.40;;;;;;;24.67;37.05;100521.69;143731;564;46020;-82
2021/05/16 08:18:31;;;;;;;1.05;0.45;;;;;;;24.76;35.73;100524.50;143731;630;47020;-83
2021/05/16 08:20:58;;;;;;;0.60;0.43;;;;;;;24.79;36.70;100513.50;143733;625;46020;-84
2021/05/16 08:23:25;;;;;;;1.55;0.57;;;;;;;24.81;35.33;100525.78;143730;596;46018;-83
2021/05/16 08:25:52;;;;;;;1.17;0.43;;;;;;;24.86;35.77;100521.84;143730;579;47021;-82
2021/05/16 08:28:19;;;;;;;1.87;0.60;;;;;;;24.94;36.02;100521.97;143731;587;47913;-82
2021/05/16 08:30:47;;;;;;;1.00;0.40;;;;;;;24.78;34.21;100475.06;143732;625;47010;-83
2021/05/16 08:33:14;;;;;;;1.35;0.50;;;;;;;25.05;34.44;100512.94;143731;917;47010;-83
2021/05/16 08:35:41;;;;;;;1.45;0.60;;;;;;;25.11;35.11;100510.53;143732;571;47008;-82
2021/05/16 08:38:08;;;;;;;1.17;0.50;;;;;;;25.21;36.15;100517.75;143732;607;46018;-82
2021/05/16 08:40:36;;;;;;;1.08;0.40;;;;;;;25.26;34.15;100518.13;143728;599;46021;-83
2021/05/16 08:43:04;;;;;;;3.47;0.47;;;;;;;25.38;34.26;100516.19;143731;571;46018;-81
2021/05/16 08:45:32;;;;;;;0.77;0.40;;;;;;;25.32;34.29;100515.72;143735;727;47012;-83
2021/05/16 08:48:00;;;;;;;2.35;0.50;;;;;;;25.42;34.09;100517.59;143729;689;47018;-83
2021/05/16 08:50:28;;;;;;;1.17;0.70;;;;;;;25.58;33.93;100495.50;143735;613;46010;-82
2021/05/16 08:52:56;;;;;;;1.67;0.60;;;;;;;25.63;33.71;100493.19;143731;738;46910;-83
2021/05/16 08:55:24;;;;;;;2.42;0.80;;;;;;;25.69;34.17;100495.31;143734;598;47008;-83
2021/05/16 08:57:51;;;;;;;2.17;0.90;;;;;;;25.76;33.79;100503.62;143733;771;47021;-88
2021/05/16 09:00:25;;;;;;;1.23;0.45;;;;;;;25.67;32.36;100499.97;143735;602;46010;-84
2021/05/16 09:03:20;;;;;;;2.28;0.50;;;;;;;25.68;33.86;100480.16;143732;703;47010;-84
2021/05/16 09:05:51;;;;;;;1.20;0.40;;;;;;;25.88;33.54;100490.84;143736;563;47008;-83
2021/05/16 09:08:22;;;;;;;1.87;0.50;;;;;;;25.95;33.30;100491.94;143731;608;46020;-83
2021/05/16 09:10:57;;;;;;;1.25;0.45;;;;;;;25.99;32.75;100494.19;143734;589;46011;-83
2021/05/16 09:13:29;;;;;;;1.52;0.50;;;;;;;26.06;32.83;100483.72;143733;577;46010;-82
2021/05/16 09:16:22;;;;;;;0.77;0.50;;;;;;;26.09;33.70;100496.03;143733;603;46020;-83
2021/05/16 09:18:56;;;;;;;1.87;0.60;;;;;;;26.13;32.80;100497.41;143728;572;46017;-85
2021/05/16 09:21:34;;;;;;;2.37;0.70;;;;;;;26.18;32.97;100493.28;143733;582;47008;-84
2021/05/16 09:24:14;;;;;;;2.28;0.43;;;;;;;26.23;31.80;100462.38;143731;615;46030;-83
2021/05/16 09:26:58;;;;;;;0.73;0.40;;;;;;;26.44;33.07;100494.41;143735;615;46010;-84
2021/05/16 09:29:39;;;;;;;1.77;0.60;;;;;;;26.47;32.62;100499.50;143733;570;46014;-85
2021/05/16 09:32:08;;;;;;;1.33;0.60;;;;;;;26.33;31.48;100471.25;143731;785;46020;-84
2021/05/16 09:34:38;;;;;;;2.20;0.60;;;;;;;26.41;31.78;100498.25;143732;611;47010;-85
2021/05/16 09:37:08;;;;;;;0.80;0.50;;;;;;;26.46;31.11;100489.72;143729;583;46020;-84
2021/05/16 09:39:36;;;;;;;1.87;0.57;;;;;;;26.39;30.04;100478.69;143736;584;46012;-83
2021/05/16 09:42:13;;;;;;;2.97;0.82;;;;;;;26.37;30.58;100464.56;143734;585;46008;-85
2021/05/16 09:44:54;;;;;;;2.60;0.60;;;;;;;26.48;31.80;100471.59;143733;602;46010;-85
2021/05/16 09:47:27;;;;;;;1.70;0.90;;;;;;;26.62;31.94;100465.66;143735;613;46011;-83
2021/05/16 09:50:04;;;;;;;5.85;1.05;;;;;;;26.69;31.53;100463.19;143733;614;47012;-83
2021/05/16 09:52:35;;;;;;;2.78;0.90;;;;;;;26.81;30.97;100459.28;143728;579;46020;-84
2021/05/16 09:55:20;;;;;;;5.50;0.95;;;;;;;26.73;30.60;100453.84;143728;580;46018;-83
2021/05/16 09:57:47;;;;;;;2.47;0.80;;;;;;;26.68;31.22;100448.03;143735;589;46010;-85
2021/05/16 10:00:17;;;;;;;1.90;0.90;;;;;;;26.78;31.08;100467.69;143732;586;46012;-85
2021/05/16 10:02:45;;;;;;;2.60;0.60;;;;;;;26.84;30.92;100461.66;143732;565;46032;-83
2021/05/16 10:05:15;;;;;;;1.40;0.60;;;;;;;26.82;29.58;100463.69;143729;566;47010;-83
2021/05/16 10:07:42;;;;;;;0.88;0.52;;;;;;;26.91;31.38;100461.06;143733;589;47008;-84
2021/05/16 10:10:12;;;;;;;1.85;0.70;;;;;;;27.00;31.26;100457.44;143732;596;46013;-82
2021/05/16 10:12:40;;;;;;;5.90;2.90;;;;;;;27.13;29.78;100462.41;143731;654;47012;-82
2021/05/16 10:15:20;;;;;;;4.43;2.20;;;;;;;27.19;29.45;100459.94;143732;624;46010;-84
2021/05/16 10:17:53;;;;;;;2.30;0.85;;;;;;;27.21;29.55;100451.69;143733;618;47008;-83
2021/05/16 10:20:28;;;;;;;1.67;0.80;;;;;;;27.27;30.05;100450.19;143732;680;46026;-84
2021/05/16 10:23:06;;;;;;;6.85;3.03;;;;;;;27.35;28.17;100443.03;143733;592;46020;-83
2021/05/16 10:25:42;;;;;;;2.47;1.30;;;;;;;27.29;29.22;100442.81;143729;576;46019;-86
2021/05/16 10:28:16;;;;;;;3.53;1.52;;;;;;;27.38;29.55;100435.66;143735;575;46010;-84
2021/05/16 10:31:08;;;;;;;3.55;1.42;;;;;;;27.44;29.94;100435.03;143732;565;47020;-92
2021/05/16 10:33:42;;;;;;;2.28;0.77;;;;;;;27.56;29.34;100424.78;143734;586;46010;-89
2021/05/16 10:36:09;;;;;;;2.35;0.90;;;;;;;27.49;29.08;100438.94;143729;680;46018;-90
2021/05/16 10:38:45;;;;;;;4.05;1.60;;;;;;;27.30;29.74;100429.19;143734;576;47008;-89
2021/05/16 10:41:25;;;;;;;3.62;1.33;;;;;;;27.30;29.91;100437.25;143732;583;46012;-84
2021/05/16 10:44:30;;;;;;;4.28;0.93;;;;;;;27.20;28.75;100428.44;143731;569;46033;-84
2021/05/16 10:46:57;;;;;;;3.42;1.58;;;;;;;27.14;30.09;100429.91;143730;638;46019;-85
2021/05/16 10:49:31;;;;;;;2.55;1.23;;;;;;;27.18;30.03;100425.91;143733;591;48012;-80
2021/05/16 10:51:58;;;;;;;3.15;0.70;;;;;;;27.06;28.73;100421.78;143732;579;46020;-76
2021/05/16 10:54:33;;;;;;;2.85;0.77;;;;;;;26.85;30.14;100422.12;143729;588;47011;-88
2021/05/16 10:57:23;;;;;;;2.30;0.70;;;;;;;26.68;29.66;100423.78;143733;595;46010;-88
2021/05/16 10:59:51;;;;;;;1.40;0.70;;;;;;;26.65;30.22;100407.97;143734;607;46010;-86
2021/05/16 11:03:09;;;;;;;4.12;0.93;;;;;;;26.54;29.81;100400.97;143729;576;47018;-89
2021/05/16 11:06:02;;;;;;;4.20;1.20;;;;;;;26.40;30.18;100378.12;143734;724;47008;-84
2021/05/16 11:09:04;;;;;;;2.35;1.10;;;;;;;26.50;30.21;100394.19;143731;567;47011;-82
2021/05/16 11:11:54;;;;;;;5.22;2.20;;;;;;;26.46;30.10;100403.59;143735;578;46010;-79
2021/05/16 11:14:28;;;;;;;2.72;1.40;;;;;;;26.45;29.38;100394.69;143732;731;47018;-83
2021/05/16 11:17:07;;;;;;;3.37;1.20;;;;;;;26.50;29.68;100394.19;143735;570;46012;-84
2021/05/16 11:19:36;;;;;;;3.12;0.70;;;;;;;26.53;29.76;100401.97;143730;585;46018;-81
2021/05/16 11:22:18;;;;;;;1.65;0.80;;;;;;;26.54;29.99;100403.66;143734;590;48008;-83
2021/05/16 11:24:49;;;;;;;2.65;0.73;;;;;;;26.65;30.21;100416.87;143727;613;46017;-79
2021/05/16 11:27:26;;;;;;;1.50;0.77;;;;;;;26.82;30.18;100419.75;143734;606;46008;-80
2021/05/16 11:29:56;;;;;;;3.22;0.90;;;;;;;26.97;30.44;100411.94;143732;622;46012;-81
2021/05/16 11:32:29;;;;;;;3.05;1.02;;;;;;;27.20;30.11;100406.87;143734;565;46011;-80
2021/05/16 11:35:09;;;;;;;1.20;0.70;;;;;;;27.48;29.63;100404.03;143732;601;46025;-80